Latest Observation

66 Stations

Daily Data
as of 5/6/26 5:40 AM PDT
Station Date Daily Max Temp (°F) Daily Min Temp (°F) Daily Max RH (%) Daily Min RH (%) Wind Spd (mph) Wind Dir (°) Daily Max Wind (mph) Max Wind Dir (°) Time of Max Wind Daily Rain (In) Weekly Precip (In) Season Precip (In) Soil Moist (%) Fuel Temp (°F) Fuel Moisture (%) MinBV Day (V)
Hobart Mills 12/23/25 51.8   11.3 33.9   2.1 88   12 42   34 2.1   1.7 SW | 224 18.4   8.6 WSW | 240 2307 0.65 6.21 15.12 - 37.6   2.8 42   19 8.0   0.7
Prosser Dam 5/5/26 62.5   15.7 36.7   0.7 98   1 40   38 2.6   0.3 E | 80 17.1   2.9 NNW | 332 1607 0.03 0.82 8.46 24.8   4.0 51.4   10.4 33   7 12.5   0.0
West Incline Village 5/5/26 51.5   10.2 32.5   0.8 100   0 61   12 1.5   0.4 SE | 124 9.3   1.2 S | 177 1333 0.42 1.36 7.94 35.5   3.1 46.7   9.0 53   16 12.4   0.0
Incline Village (Fairview Blvd) 5/5/26 51.8   9.8 33.5   1.4 100   0 70   1 0.4   0.4 SW | 225 8.1   1.7 WSW | 246 1441 0.37 1.30 7.48 28.9   1.5 44.9   6.9 38   2 12.4   0.0
Incline Village (Diamond Peak) 5/5/26 49.6   9.9 31.8   0.5 99   0 76   1 1.2   1.2 NW | 306 8.6   2.6 ENE | 72 1357 0.07 0.10 0.51 10.1   2.1 - - 12.2   0.0
Incline Village (Mill Creek) 5/5/26 53.2   9.6 33.8   1.4 98   0 64   18 0.5   0.2 W | 272 8.7   3.5 WNW | 287 1553 0.13 1.27 7.18 11.3   1.5 - - 12.2   0.0
Incline Village (Lakeshore Blvd) 5/5/26 51.5   5.7 35.8   2.4 100   0 69   10 0.6   0.1 SSW | 203 5.7   2.0 SSE | 159 1421 0.02 1.15 7.20 36.6   0.1 51.1   4.5 23   4 12.2   0.0
Glenbrook 5/5/26 54.8   9.6 34.2   1.6 97   0 56   18 1.4   0.5 S | 178 9.9   2.4 WSW | 254 1528 0.06 1.09 5.88 44.2   0.0 44.7   5.6 43   0 12.4   0.0
Zephyr Cove 5/5/26 54.4   10.4 32.6   0.1 100   2 59   21 0.1   0.1 NNW | 328 2.6   1.6 NW | 326 1659 0.01 0.11 0.68 - 40.7   8.6 - 12.4   0.0
Kingsbury Grade 5/5/26 55.8   12.7 32.0   0.1 98   1 55   27 0.7   0.2 E | 96 11.4   3.9 S | 170 1419 0.60 0.95 5.82 6.1   0.5 42.5   3.7 37   2 12.4   0.0
South Daggett Pass (Ridge) 5/5/26 51.9   11.8 31.2   0.4 100   0 61   24 2.2   0.3 SW | 218 11.7   13.0 ESE | 123 1349 0.46 0.73 4.05 6.7   0.2 41.3   4.3 34   6 12.4   0.0
Palomino Valley 5/5/26 72.0   7.5 46.2   1.3 87   2 26   16 2.7   3.0 NNE | 13 19.9   11.7 NW | 312 1553 0.00 0.27 1.41 6.8   0.0 60.3   5.5 1   10 12.5   0.0
East Cold Springs 5/5/26 66.6   7.5 40.3   0.5 91   2 34   18 7.4   4.5 W | 267 19.6   6.0 NW | 309 0039 0.09 0.68 2.09 1.6   0.1 56.6   7.5 33   6 12.6   0.0
Peavine 5/5/26 62.4   8.2 40.7   1.2 93   3 41   13 4.7   0.7 N | 11 16.9   16.8 NNW | 330 2333 0.00 0.67 2.14 - - - 12.5   0.0
West Verdi Peak 5/5/26 62.6   13.3 37.1   1.6 95   2 40   19 2.3   0.8 NW | 314 14.9   5.3 NW | 305 2053 0.00 0.78 6.39 22.0   5.3 55.4   12.0 29   6 12.5   0.0
West Verdi 5/5/26 68.2   12.6 40.2   0.6 94   1 34   24 2.9   1.0 SW | 232 19.2   13.5 WSW | 252 1944 0.00 0.65 5.92 8.3   0.4 57.9   10.5 32   0 12.5   0.0
South Verdi 5/5/26 65.7   16.0 41.1   1.2 86   2 35   24 10.5   10.7 WSW | 248 23.4   18.1 WSW | 248 0437 0.00 0.57 4.81 16.8   0.6 57.0   11.4 18   5 12.6   0.0
Northwest Reno 5/5/26 67.6   12.2 43.5   0.7 90   0 35   18 5.2   10.7 N | 358 22.2   27.3 NNW | 338 2219 0.00 0.33 1.33 23.4   0.2 - - 12.5   0.1
North Lawton 5/5/26 66.8   11.9 42.5   0.9 84   4 35   22 5.7   5.4 WSW | 245 16.8   14.2 SW | 216 0208 0.00 0.44 2.14 - - - 12.5   0.0
West Reno (Mogul) 5/5/26 66.6   8.2 42.6   0.0 84   5 34   12 3.4   2.0 WSW | 254 18.8   10.2 SW | 228 2052 0.00 0.34 4.24 38.4   0.2 57.8   7.7 17   1 12.5   0.1
Caughlin (Hunter Lake Trail) 9/15/25 78.6   1.3 52.5   3.7 58   7 23   2 4.2   2.5 S | 173 13.0   20.5 NNE | 31 1309 0.00 0.32 8.05 15.7   0.1 67.4   0.5 7   1 12.7   0.0
ArrowCreek 5/5/26 67.2   11.5 43.4   0.1 93   0 33   20 3.1   2.2 WNW | 288 18.6   11.7 W | 259 2028 0.00 0.69 5.25 - - - 12.3   0.0
Tracy 5/5/26 70.9   8.3 47.8   0.1 81   6 31   14 6.3   4.1 WSW | 237 19.0   3.6 WSW | 252 0355 0.00 0.37 1.23 7.9   0.1 60.6   6.0 19   1 12.6   0.1
Virginia Highlands 5/5/26 61.9   10.0 40.1   0.2 98   1 38   22 3.0   0.0 NW | 308 15.0   5.5 NNW | 342 1746 0.00 0.44 2.15 9.2   1.6 52.0   7.0 33   8 12.5   0.1
Virginia City 5/5/26 56.7   7.2 38.6   0.0 99   1 55   6 4.5   1.3 S | 175 21.1   5.0 NNE | 18 0555 0.01 0.41 1.86 8.2   0.1 50.9   6.2 29   6 12.5   0.0
Six Mile Canyon 9/8/25 98.8   16.5 50.2   7.6 44   3 11   1 7.2   0.3 WSW | 252 27.0   4.6 SSE | 159 1325 0.00 0.00 0.89 12.6   0.1 69.7   3.0 4   0 12.4   0.2
Mt Rose Highway 4/29/26 56.6   7.9 35.6   4.1 63   16 31   6 2.2   0.0 NW | 305 10.8   4.2 NE | 35 1152 0.00 0.08 4.93 24.3   0.3 47.6   8.0 3   0 12.4   0.0
Pleasant Valley 5/5/26 66.4   13.2 43.3   0.0 93   1 39   20 3.8   0.3 SW | 219 14.8   5.1 SW | 230 1330 0.01 0.49 2.52 2.8   0.0 56.5   8.3 33   5 12.5   0.0
New Washoe City 5/5/26 64.4   12.2 42.8   0.3 95   2 43   21 2.2   0.0 SSW | 199 18.5   4.0 SW | 231 1342 0.01 0.45 1.76 4.4   0.1 55.6   9.4 39   6 12.5   0.0
Franktown Creek 5/5/26 65.1   13.0 42.8   0.2 98   1 42   23 1.4   0.3 S | 190 12.3   1.4 SE | 136 1310 0.01 0.64 5.97 11.1   0.0 52.7   6.8 29   2 12.6   0.0
Musgrove Creek 5/5/26 62.6   10.8 40.8   0.2 94   0 42   16 1.5   0.9 SSW | 201 14.7   10.8 SSW | 201 2119 0.01 0.97 8.00 45.0   0.7 53.4   9.1 36   1 12.4   0.0
East Carson 11/22/24 63.8   0.3 41.7   4.6 85   21 21   9 14.9   6.0 SW | 224 46.6   12.7 S | 171 1835 0.05 0.05 4.48 2.5   0.0 53.9   0.3 9   0 12.6   0.0
Kings Canyon 5/5/26 63.2   8.8 41.5   0.2 98   3 45   13 2.7   0.0 SSE | 162 15.6   1.5 WNW | 287 2040 0.05 0.66 4.52 15.2   0.0 55.6   8.5 31   1 12.5   0.0
Carson City (Voltaire Canyon) 5/5/26 62.7   8.3 42.1   0.1 95   7 47   11 7.8   0.2 S | 191 19.9   4.5 WSW | 244 2328 0.01 1.23 1.32 2.8   0.0 - - 12.5   0.0
Jacks Valley 5/5/26 61.8   8.3 41.5   0.0 95   4 47   6 3.4   1.8 SSW | 210 16.4   12.7 WNW | 282 2022 0.13 0.52 2.50 12.8   3.2 53.0   6.3 35   5 12.6   0.0
Genoa 5/5/26 64.6   8.5 43.2   0.6 97   2 46   7 0.4   0.3 NE | 50 9.9   10.1 SSW | 193 1947 0.15 0.48 5.22 11.6   6.1 51.6   2.6 40   15 12.2   0.0
South Genoa (Walleys Hot Springs) 5/5/26 64.6   7.6 44.2   0.2 94   6 45   6 3.1   1.3 S | 181 17.6   14.0 NW | 314 2039 0.14 0.40 3.35 14.0   0.4 55.0   4.9 26   8 12.5   0.0
SW Gardnerville (HWY 88) 5/5/26 63.5   7.5 43.2   1.2 96   4 43   11 4.0   1.6 S | 169 15.5   12.8 WSW | 250 2315 0.01 0.04 0.60 3.4   0.0 53.7   4.4 30   6 12.4   0.0
Sheridan 5/5/26 64.2   6.8 43.1   1.1 95   2 40   10 2.7   0.8 WNW | 303 12.3   3.7 WSW | 241 2306 0.12 0.40 3.46 6.0   3.7 54.9   4.1 28   6 12.5   0.0
Ruhenstroth 5/5/26 63.4   9.0 42.2   2.2 95   3 45   8 3.4   2.3 SSE | 166 16.8   12.7 S | 190 2344 0.61 0.64 2.06 12.7   0.0 52.5   2.6 35   11 12.6   0.0
Double Spring 5/5/26 55.9   6.0 38.2   0.8 96   5 57   4 4.5   0.1 NE | 39 25.8   2.8 SE | 126 2251 0.34 0.90 2.44 29.4   1.0 48.2   4.1 39   1 12.5   0.0
North Topaz Lake 5/5/26 57.6   4.7 40.2   2.1 96   8 50   1 3.2   1.9 WNW | 292 32.0   7.1 NE | 45 2230 0.29 0.59 1.68 9.0   0.0 48.8   1.8 36   9 12.5   0.0
Wild Oat Mountain 5/5/26 56.8   4.5 38.1   2.0 94   5 55   1 3.6   1.6 S | 187 20.5   3.0 SW | 226 2307 0.26 0.52 1.77 16.5   0.0 48.8   3.6 30   7 12.5   0.0
Smith Valley 5/5/26 62.9   0.9 43.6   1.7 92   5 42   2 2.9   2.2 S | 177 25.1   0.6 NE | 41 2219 0.29 0.51 1.37 5.8   0.1 56.0   4.4 32   13 12.5   0.0
Pine Grove Mountain 5/5/26 47.5   4.0 31.7   0.2 98   1 52   6 4.3   1.8 NW | 309 29.4   6.8 E | 95 2256 0.25 0.57 0.91 20.3   5.5 40.2   1.2 32   12 12.5   0.1
Paradise Hill 5/5/26 73.6   2.2 43.5   3.3 82   18 20   0 6.4   1.3 N | 350 26.0   8.7 N | 5 1758 0.00 0.00 2.33 8.0   0.0 63.5   1.7 7   1 12.6   0.0
Winnemucca 5/5/26 72.4   2.7 44.4   0.0 86   10 23   6 7.3   0.1 SSW | 204 24.3   6.5 ENE | 63 1550 0.00 0.00 2.90 5.9   0.0 63.6   0.3 4   2 12.6   0.0
NE Elko 5/5/26 61.9   12.1 41.5   8.0 88   18 43   30 8.5   3.6 SW | 230 23.8   11.2 SW | 215 1154 0.02 0.04 2.33 12.4   0.0 54.3   4.0 11   6 12.6   0.1
North Elko 5/5/26 61.2   10.6 43.0   2.5 84   2 44   29 8.8   2.5 SW | 233 28.8   9.6 WSW | 244 1340 0.41 0.44 2.48 28.5   0.0 50.9   10.1 15   10 12.6   0.0
South Elko 5/5/26 - 46.2   2.9 100   7 46   27 6.5   0.3 SSW | 192 27.7   3.2 WNW | 288 1443 0.04 0.04 2.71 18.6   0.1 50.2   9.5 17   13 12.6   0.0
Lamoille 1/27/26 42.4   2.7 21.5   6.4 60   0 25   6 2.6   0.5 SE | 125 8.2   4.1 SE | 139 0137 0.00 0.00 0.67 12.3   0.2 26.9   1.3 11   0 8.5   2.8
Reid Gardner Sub 5/5/26 77.9   2.7 54.6   9.7 48   11 18   3 4.5   4.0 SSW | 203 15.5   10.7 SE | 134 1426 0.00 0.00 0.56 24.6   0.3 74.6   1.3 2   0 12.6   0.0
Corn Creek 5/5/26 71.2   4.5 52.1   4.8 52   9 23   12 6.0   7.1 E | 98 18.6   22.5 ENE | 63 1326 0.00 0.00 0.63 3.9   0.1 67.8   0.3 2   0 12.5   0.0
Lucky Strike 5/5/26 59.4   5.5 42.4   5.7 54   7 26   14 5.0   4.2 SSE | 167 18.3   13.9 W | 270 2342 0.00 0.00 1.21 4.4   0.0 56.2   4.0 3   1 12.5   0.1
Lower Angel Peak 5/5/26 54.2   5.8 33.6   3.4 65   14 31   20 4.1   1.6 SSW | 193 15.8   9.3 NW | 319 1124 0.00 0.00 1.93 10.2   0.1 49.2   5.3 3   0 12.5   0.1
Angel Peak 5/5/26 44.7   4.2 29.5   6.0 75   15 37   24 5.5   2.6 E | 95 35.6   1.1 WNW | 302 0059 0.01 0.02 84.72 3.5   0.0 39.2   6.2 6   1 12.5   0.0
Upper Kyle Canyon 5/5/26 46.6   5.3 30.5   4.0 60   6 34   22 5.1   0.1 N | 7 30.9   4.2 W | 278 0007 0.00 0.00 5.08 13.7   0.0 45.7   6.2 7   0 12.8   0.1
Mt Charleston 5/5/26 48.0   3.4 31.3   4.5 60   7 34   19 2.2   2.2 E | 87 15.6   9.7 E | 95 1208 0.00 0.00 5.28 18.3   0.1 50.9   3.3 26   1 12.5   0.0
Mid Kyle Canyon 5/5/26 54.3   4.8 34.8   6.0 57   9 35   22 6.5   4.0 NW | 326 19.0   12.3 ENE | 77 0850 0.00 0.00 2.08 7.0   0.0 53.8   1.0 6   0 12.7   0.0
Blue Diamond 5/5/26 69.4   1.0 48.1   6.6 57   12 25   10 6.0   2.8 NW | 318 21.7   7.9 NW | 312 1657 0.00 0.00 0.85 3.5   0.0 - 5   1 12.7   0.0
Artesian Sub 5/5/26 78.3   2.0 59.1   6.0 45   5 17   6 4.2   3.0 SE | 131 16.4   8.0 ESE | 117 1220 0.00 0.00 0.35 13.3   0.0 - 0   0 12.6   0.0
North Henderson 5/5/26 77.9   1.7 61.6   3.8 42   4 17   6 5.9   4.7 SSW | 202 19.6   8.2 SSW | 201 0108 0.00 0.00 0.52 8.8   0.0 75.0   0.8 5   1 12.7   0.0
Sandy Valley 5/5/26 69.9   1.5 51.0   4.0 61   1 27   8 4.4   3.0 SW | 224 18.8   7.6 WSW | 258 1605 0.00 0.00 0.62 4.5   0.1 65.3   1.2 5   1 12.7   0.0
Searchlight 5/5/26 67.2   2.2 46.9   5.4 67   14 27   9 4.0   6.2 W | 274 15.8   14.2 S | 186 1504 0.00 0.00 0.51 4.6   0.1 62.6   2.8 2   1 12.5   0.1
Laughlin 5/5/26 80.4   2.3 63.1   5.9 49   10 21   5 6.2   6.1 SSW | 199 20.0   8.0 S | 175 1423 0.00 0.00 0.29 4.1   0.0 74.3   2.5 5   0 12.8   0.0
31Mission Hills 5/5/26 74.0 50.0 42 18 6.5 S | 172 24.7 WSW | 238 1509 0.00 0.00 0.00 3.9 74.6 6 13.1
Max   80.4 63.1 100 76 10.5 - 35.6 - - 0.61 - 84.72 45.0 75.0 53 13.1
Avg   - - - - 4.0 - - - - - - - 13.8 54.5 22 -
Min   44.7 29.5 42 17 0.1 - 2.6 - - 0.00 - 0.00 1.6 39.2 0 12.2